KTBR

Statesboro-Bulloch County Airport

Statesboro, Georgia, USA
METAR KTBR 191455Z AUTO 27005KT 10SM CLR 06/M10 A3033 RMK AO2 T00551102
Observed Flight Rules
Jan-19 @ 14:55 UTC (33 minutes ago) Visual Flight Rules
Wind Visibility Clouds
270° at 5 knots 10 miles
  • Clear skies
Temperatures Readings
Current 6°C / 43°F
Dewpoint -10°C / 14°F
Humidity 31%
Altimeter 30.33" Hg
Pressure 1027 hPa
Elevation 57
METAR KTBR 191455Z AUTO 27005KT 10SM CLR 06/M10 A3033 RMK AO2 T00551102
Observed Flight Rules
Jan-19 @ 14:55 UTC
(33 minutes ago)
VFR
Wind Visibility
270° at 5 knots 10 miles
Clouds
  • Clear skies
Temperature Dewpoint
6°C / 43°F -10°C / 14°F
Humidity Altimeter Pressure
31% 30.33" Hg 1027 hPa